sensor_id;sensor_type;location;lat;lon;timestamp;temperature;humidity
55026;DHT22;40925;45.666;18.994;2023-04-29T00:02:13;333.50;2329.60
55026;DHT22;40925;45.666;18.994;2023-04-29T00:04:39;333.60;2329.60
55026;DHT22;40925;45.666;18.994;2023-04-29T00:07:04;333.50;2329.60
55026;DHT22;40925;45.666;18.994;2023-04-29T00:09:31;333.50;2329.60
55026;DHT22;40925;45.666;18.994;2023-04-29T00:11:57;333.50;2329.60
55026;DHT22;40925;45.666;18.994;2023-04-29T00:14:23;333.60;2329.60
55026;DHT22;40925;45.666;18.994;2023-04-29T00:16:49;333.60;2329.60
55026;DHT22;40925;45.666;18.994;2023-04-29T00:19:15;333.50;2329.60
55026;DHT22;40925;45.666;18.994;2023-04-29T00:21:42;333.60;2329.60
55026;DHT22;40925;45.666;18.994;2023-04-29T00:24:08;333.60;2329.60
55026;DHT22;40925;45.666;18.994;2023-04-29T00:26:34;333.60;2329.60
55026;DHT22;40925;45.666;18.994;2023-04-29T00:29:00;333.60;2329.60
55026;DHT22;40925;45.666;18.994;2023-04-29T00:31:25;333.60;2329.60
55026;DHT22;40925;45.666;18.994;2023-04-29T00:33:51;333.50;2329.60
55026;DHT22;40925;45.666;18.994;2023-04-29T00:36:17;333.50;2329.60
55026;DHT22;40925;45.666;18.994;2023-04-29T00:38:42;333.50;2329.60
55026;DHT22;40925;45.666;18.994;2023-04-29T00:41:08;333.50;2329.60
55026;DHT22;40925;45.666;18.994;2023-04-29T00:43:34;333.50;2329.60
55026;DHT22;40925;45.666;18.994;2023-04-29T00:46:00;333.50;2329.60
55026;DHT22;40925;45.666;18.994;2023-04-29T00:48:25;333.50;2329.60
55026;DHT22;40925;45.666;18.994;2023-04-29T00:50:51;333.50;2329.60
55026;DHT22;40925;45.666;18.994;2023-04-29T00:53:17;333.50;2329.60
55026;DHT22;40925;45.666;18.994;2023-04-29T00:55:43;333.50;2329.60
55026;DHT22;40925;45.666;18.994;2023-04-29T00:58:11;333.50;2329.60
55026;DHT22;40925;45.666;18.994;2023-04-29T01:00:37;333.50;2329.60
55026;DHT22;40925;45.666;18.994;2023-04-29T01:03:04;333.50;2329.60
55026;DHT22;40925;45.666;18.994;2023-04-29T01:05:29;333.50;2329.60
55026;DHT22;40925;45.666;18.994;2023-04-29T01:08:12;333.40;2329.60
55026;DHT22;40925;45.666;18.994;2023-04-29T01:10:47;333.20;2329.60
55026;DHT22;40925;45.666;18.994;2023-04-29T01:13:30;333.20;2329.60
55026;DHT22;40925;45.666;18.994;2023-04-29T01:16:03;333.20;2329.60
55026;DHT22;40925;45.666;18.994;2023-04-29T01:18:36;333.20;2329.60
55026;DHT22;40925;45.666;18.994;2023-04-29T01:21:03;333.20;2329.60
55026;DHT22;40925;45.666;18.994;2023-04-29T01:23:29;333.20;2329.60
55026;DHT22;40925;45.666;18.994;2023-04-29T01:25:56;333.20;2329.60
55026;DHT22;40925;45.666;18.994;2023-04-29T01:28:38;333.10;2329.60
55026;DHT22;40925;45.666;18.994;2023-04-29T01:31:19;333.10;2329.60
55026;DHT22;40925;45.666;18.994;2023-04-29T01:34:09;333.10;2329.60
55026;DHT22;40925;45.666;18.994;2023-04-29T01:40:11;333.10;2329.60
55026;DHT22;40925;45.666;18.994;2023-04-29T01:42:45;333.00;2329.60
55026;DHT22;40925;45.666;18.994;2023-04-29T01:45:14;332.90;2329.60
55026;DHT22;40925;45.666;18.994;2023-04-29T01:47:42;332.90;2329.60
55026;DHT22;40925;45.666;18.994;2023-04-29T01:50:09;333.00;2329.60
55026;DHT22;40925;45.666;18.994;2023-04-29T01:52:35;332.90;2329.60
55026;DHT22;40925;45.666;18.994;2023-04-29T01:55:02;333.00;2329.60
55026;DHT22;40925;45.666;18.994;2023-04-29T01:57:28;332.90;2329.60
55026;DHT22;40925;45.666;18.994;2023-04-29T01:59:53;332.90;2329.60
55026;DHT22;40925;45.666;18.994;2023-04-29T02:02:21;332.90;2329.60
55026;DHT22;40925;45.666;18.994;2023-04-29T02:04:48;332.90;2329.60
55026;DHT22;40925;45.666;18.994;2023-04-29T02:07:15;332.80;2329.60
55026;DHT22;40925;45.666;18.994;2023-04-29T02:09:41;332.80;2329.60
55026;DHT22;40925;45.666;18.994;2023-04-29T02:12:06;332.80;2329.60
55026;DHT22;40925;45.666;18.994;2023-04-29T02:14:32;332.80;2329.60
55026;DHT22;40925;45.666;18.994;2023-04-29T02:16:59;332.80;2329.60
55026;DHT22;40925;45.666;18.994;2023-04-29T02:19:24;308.10;2304.00
55026;DHT22;40925;45.666;18.994;2023-04-29T02:21:50;308.00;2304.00
55026;DHT22;40925;45.666;18.994;2023-04-29T02:24:16;307.90;2304.00
55026;DHT22;40925;45.666;18.994;2023-04-29T02:26:41;307.90;2304.00
55026;DHT22;40925;45.666;18.994;2023-04-29T02:29:07;308.00;2304.00
55026;DHT22;40925;45.666;18.994;2023-04-29T03:08:11;307.70;2304.00
55026;DHT22;40925;45.666;18.994;2023-04-29T07:21:24;384.50;2099.20
55026;DHT22;40925;45.666;18.994;2023-04-29T07:23:50;384.40;2329.60
55026;DHT22;40925;45.666;18.994;2023-04-29T07:26:16;384.30;2073.60
55026;DHT22;40925;45.666;18.994;2023-04-29T07:28:43;384.30;2048.00
55026;DHT22;40925;45.666;18.994;2023-04-29T07:31:09;384.50;2022.40
55026;DHT22;40925;45.666;18.994;2023-04-29T07:33:37;384.50;2048.00
55026;DHT22;40925;45.666;18.994;2023-04-29T07:36:07;409.90;2073.60
55026;DHT22;40925;45.666;18.994;2023-04-29T07:50:47;435.60;1868.80
55026;DHT22;40925;45.666;18.994;2023-04-29T09:11:09;512.70;1536.00
55026;DHT22;40925;45.666;18.994;2023-04-29T09:23:40;538.00;1510.40
55026;DHT22;40925;45.666;18.994;2023-04-29T09:26:07;512.90;1510.40
55026;DHT22;40925;45.666;18.994;2023-04-29T09:43:14;537.90;1484.80
55026;DHT22;40925;45.666;18.994;2023-04-29T09:45:42;537.70;1484.80
55026;DHT22;40925;45.666;18.994;2023-04-29T09:48:09;512.70;1433.60
55026;DHT22;40925;45.666;18.994;2023-04-29T09:50:36;512.90;1459.20
55026;DHT22;40925;45.666;18.994;2023-04-29T09:53:03;537.80;1459.20
55026;DHT22;40925;45.666;18.994;2023-04-29T09:55:29;537.70;1536.00
55026;DHT22;40925;45.666;18.994;2023-04-29T09:57:56;512.80;1433.60
55026;DHT22;40925;45.666;18.994;2023-04-29T10:00:23;512.90;1433.60
55026;DHT22;40925;45.666;18.994;2023-04-29T10:02:50;538.00;1459.20
55026;DHT22;40925;45.666;18.994;2023-04-29T10:10:48;589.00;1382.40
55026;DHT22;40925;45.666;18.994;2023-04-29T10:13:25;564.00;1382.40
55026;DHT22;40925;45.666;18.994;2023-04-29T10:16:10;563.70;1408.00
55026;DHT22;40925;45.666;18.994;2023-04-29T10:18:40;563.50;1433.60
55026;DHT22;40925;45.666;18.994;2023-04-29T10:21:09;564.00;1433.60
55026;DHT22;40925;45.666;18.994;2023-04-29T10:23:36;564.00;1408.00
55026;DHT22;40925;45.666;18.994;2023-04-29T10:26:03;563.30;1433.60
55026;DHT22;40925;45.666;18.994;2023-04-29T10:28:30;563.20;1510.40
55026;DHT22;40925;45.666;18.994;2023-04-29T10:31:00;563.40;1484.80
55026;DHT22;40925;45.666;18.994;2023-04-29T10:33:34;563.30;1510.40
55026;DHT22;40925;45.666;18.994;2023-04-29T10:36:01;563.40;1459.20
55026;DHT22;40925;45.666;18.994;2023-04-29T10:38:33;563.60;1433.60
55026;DHT22;40925;45.666;18.994;2023-04-29T10:41:05;564.10;1408.00
55026;DHT22;40925;45.666;18.994;2023-04-29T10:43:33;563.70;1408.00
55026;DHT22;40925;45.666;18.994;2023-04-29T10:49:03;614.90;1331.20
55026;DHT22;40925;45.666;18.994;2023-04-29T10:51:34;615.00;1280.00
55026;DHT22;40925;45.666;18.994;2023-04-29T10:56:41;614.60;1305.60
55026;DHT22;40925;45.666;18.994;2023-04-29T10:59:15;614.70;1331.20
55026;DHT22;40925;45.666;18.994;2023-04-29T11:09:08;614.40;1280.00
55026;DHT22;40925;45.666;18.994;2023-04-29T11:14:33;589.60;1356.80
55026;DHT22;40925;45.666;18.994;2023-04-29T11:17:12;614.50;1356.80
55026;DHT22;40925;45.666;18.994;2023-04-29T11:19:46;614.60;1305.60
55026;DHT22;40925;45.666;18.994;2023-04-29T11:25:24;614.50;1331.20
55026;DHT22;40925;45.666;18.994;2023-04-29T11:27:44;614.70;1331.20
55026;DHT22;40925;45.666;18.994;2023-04-29T11:30:13;614.70;1331.20
55026;DHT22;40925;45.666;18.994;2023-04-29T11:35:13;640.40;1305.60
55026;DHT22;40925;45.666;18.994;2023-04-29T11:37:40;615.30;1203.20
55026;DHT22;40925;45.666;18.994;2023-04-29T11:40:07;640.00;1280.00
55026;DHT22;40925;45.666;18.994;2023-04-29T11:42:34;640.00;1228.80
55026;DHT22;40925;45.666;18.994;2023-04-29T11:45:01;615.10;1280.00
55026;DHT22;40925;45.666;18.994;2023-04-29T11:47:28;615.30;1254.40
55026;DHT22;40925;45.666;18.994;2023-04-29T11:50:02;615.10;1280.00
55026;DHT22;40925;45.666;18.994;2023-04-29T11:52:28;589.70;1280.00
55026;DHT22;40925;45.666;18.994;2023-04-29T11:54:54;614.50;1280.00
55026;DHT22;40925;45.666;18.994;2023-04-29T11:57:19;614.70;1331.20
55026;DHT22;40925;45.666;18.994;2023-04-29T11:59:46;615.20;1305.60
55026;DHT22;40925;45.666;18.994;2023-04-29T12:02:12;640.00;1254.40
55026;DHT22;40925;45.666;18.994;2023-04-29T12:04:45;615.00;1254.40
55026;DHT22;40925;45.666;18.994;2023-04-29T12:07:14;614.50;1228.80
55026;DHT22;40925;45.666;18.994;2023-04-29T12:09:42;614.70;1254.40
55026;DHT22;40925;45.666;18.994;2023-04-29T12:12:08;615.30;1254.40
55026;DHT22;40925;45.666;18.994;2023-04-29T12:14:34;640.70;1177.60
55026;DHT22;40925;45.666;18.994;2023-04-29T12:17:00;640.60;1228.80
55026;DHT22;40925;45.666;18.994;2023-04-29T12:19:26;640.30;1203.20
55026;DHT22;40925;45.666;18.994;2023-04-29T12:21:52;614.90;1203.20
55026;DHT22;40925;45.666;18.994;2023-04-29T12:24:19;615.30;1228.80
55026;DHT22;40925;45.666;18.994;2023-04-29T12:26:46;640.80;1203.20
55026;DHT22;40925;45.666;18.994;2023-04-29T12:31:39;640.60;1126.40
55026;DHT22;40925;45.666;18.994;2023-04-29T12:34:04;640.10;1177.60
55026;DHT22;40925;45.666;18.994;2023-04-29T12:36:30;640.00;1152.00
55026;DHT22;40925;45.666;18.994;2023-04-29T12:38:58;614.90;1177.60
55026;DHT22;40925;45.666;18.994;2023-04-29T12:41:59;614.70;1203.20
55026;DHT22;40925;45.666;18.994;2023-04-29T12:44:26;614.70;1228.80
55026;DHT22;40925;45.666;18.994;2023-04-29T12:47:07;614.90;1228.80
55026;DHT22;40925;45.666;18.994;2023-04-29T12:49:33;614.70;1177.60
55026;DHT22;40925;45.666;18.994;2023-04-29T12:51:59;640.00;1203.20
55026;DHT22;40925;45.666;18.994;2023-04-29T12:54:24;640.50;1177.60
55026;DHT22;40925;45.666;18.994;2023-04-29T12:59:16;666.20;1280.00
55026;DHT22;40925;45.666;18.994;2023-04-29T13:01:42;666.50;1100.80
55026;DHT22;40925;45.666;18.994;2023-04-29T13:04:08;666.00;1126.40
55026;DHT22;40925;45.666;18.994;2023-04-29T13:06:36;691.20;1100.80
55026;DHT22;40925;45.666;18.994;2023-04-29T13:09:08;666.00;1100.80
55026;DHT22;40925;45.666;18.994;2023-04-29T13:11:37;666.20;1100.80
55026;DHT22;40925;45.666;18.994;2023-04-29T13:14:04;666.00;1152.00
55026;DHT22;40925;45.666;18.994;2023-04-29T13:16:32;666.50;1100.80
55026;DHT22;40925;45.666;18.994;2023-04-29T13:18:59;691.30;1100.80
55026;DHT22;40925;45.666;18.994;2023-04-29T13:21:24;666.40;1152.00
55026;DHT22;40925;45.666;18.994;2023-04-29T13:23:52;666.40;1152.00
55026;DHT22;40925;45.666;18.994;2023-04-29T13:26:17;691.30;1126.40
55026;DHT22;40925;45.666;18.994;2023-04-29T13:28:43;691.30;1100.80
55026;DHT22;40925;45.666;18.994;2023-04-29T13:31:09;691.90;1152.00
55026;DHT22;40925;45.666;18.994;2023-04-29T13:33:35;691.80;1100.80
55026;DHT22;40925;45.666;18.994;2023-04-29T13:36:01;691.80;1100.80
55026;DHT22;40925;45.666;18.994;2023-04-29T13:38:27;692.00;1100.80
55026;DHT22;40925;45.666;18.994;2023-04-29T13:40:52;692.10;1075.20
55026;DHT22;40925;45.666;18.994;2023-04-29T13:43:18;692.00;1075.20
55026;DHT22;40925;45.666;18.994;2023-04-29T13:45:44;691.70;1075.20
55026;DHT22;40925;45.666;18.994;2023-04-29T13:48:09;691.70;1075.20
55026;DHT22;40925;45.666;18.994;2023-04-29T13:50:35;691.40;1075.20
55026;DHT22;40925;45.666;18.994;2023-04-29T13:53:01;666.40;1126.40
55026;DHT22;40925;45.666;18.994;2023-04-29T13:55:27;666.20;1126.40
55026;DHT22;40925;45.666;18.994;2023-04-29T13:57:53;691.20;1152.00
55026;DHT22;40925;45.666;18.994;2023-04-29T14:00:19;691.70;1126.40
55026;DHT22;40925;45.666;18.994;2023-04-29T14:02:44;691.70;1075.20
55026;DHT22;40925;45.666;18.994;2023-04-29T14:05:10;640.90;1177.60
55026;DHT22;40925;45.666;18.994;2023-04-29T14:07:36;665.80;1228.80
55026;DHT22;40925;45.666;18.994;2023-04-29T14:10:02;666.40;1177.60
55026;DHT22;40925;45.666;18.994;2023-04-29T14:12:28;691.40;1126.40
55026;DHT22;40925;45.666;18.994;2023-04-29T14:14:53;691.60;1126.40
55026;DHT22;40925;45.666;18.994;2023-04-29T14:17:19;691.80;1100.80
55026;DHT22;40925;45.666;18.994;2023-04-29T14:19:45;691.90;1126.40
55026;DHT22;40925;45.666;18.994;2023-04-29T14:22:10;716.90;1126.40
55026;DHT22;40925;45.666;18.994;2023-04-29T14:24:36;717.00;1100.80
55026;DHT22;40925;45.666;18.994;2023-04-29T14:27:03;717.10;1075.20
55026;DHT22;40925;45.666;18.994;2023-04-29T14:29:29;717.40;1100.80
55026;DHT22;40925;45.666;18.994;2023-04-29T14:31:55;717.30;1075.20
55026;DHT22;40925;45.666;18.994;2023-04-29T14:34:22;717.00;1075.20
55026;DHT22;40925;45.666;18.994;2023-04-29T14:36:47;717.00;1075.20
55026;DHT22;40925;45.666;18.994;2023-04-29T14:39:13;717.00;1100.80
55026;DHT22;40925;45.666;18.994;2023-04-29T14:41:39;717.30;1049.60
55026;DHT22;40925;45.666;18.994;2023-04-29T14:44:04;691.70;1075.20
55026;DHT22;40925;45.666;18.994;2023-04-29T14:46:31;691.40;1100.80
55026;DHT22;40925;45.666;18.994;2023-04-29T14:48:57;691.90;1075.20
55026;DHT22;40925;45.666;18.994;2023-04-29T14:51:23;692.10;1049.60
55026;DHT22;40925;45.666;18.994;2023-04-29T14:53:50;716.80;1100.80
55026;DHT22;40925;45.666;18.994;2023-04-29T14:56:16;716.90;1075.20
55026;DHT22;40925;45.666;18.994;2023-04-29T14:58:42;716.80;1075.20
55026;DHT22;40925;45.666;18.994;2023-04-29T15:01:08;717.10;1075.20
55026;DHT22;40925;45.666;18.994;2023-04-29T15:03:34;716.80;1075.20
55026;DHT22;40925;45.666;18.994;2023-04-29T15:06:02;716.90;1075.20
55026;DHT22;40925;45.666;18.994;2023-04-29T15:08:29;692.10;1075.20
55026;DHT22;40925;45.666;18.994;2023-04-29T15:10:55;716.90;1100.80
55026;DHT22;40925;45.666;18.994;2023-04-29T15:13:21;716.80;1075.20
55026;DHT22;40925;45.666;18.994;2023-04-29T15:15:48;717.00;1075.20
55026;DHT22;40925;45.666;18.994;2023-04-29T15:18:13;717.00;1075.20
55026;DHT22;40925;45.666;18.994;2023-04-29T15:20:39;717.30;1075.20
55026;DHT22;40925;45.666;18.994;2023-04-29T15:23:05;692.10;1075.20
55026;DHT22;40925;45.666;18.994;2023-04-29T15:25:32;691.80;1100.80
55026;DHT22;40925;45.666;18.994;2023-04-29T15:27:58;691.70;1100.80
55026;DHT22;40925;45.666;18.994;2023-04-29T15:30:27;691.60;1126.40
55026;DHT22;40925;45.666;18.994;2023-04-29T15:32:56;691.60;1126.40
55026;DHT22;40925;45.666;18.994;2023-04-29T15:35:22;691.40;1126.40
55026;DHT22;40925;45.666;18.994;2023-04-29T15:37:48;691.30;1126.40
55026;DHT22;40925;45.666;18.994;2023-04-29T15:40:13;691.30;1126.40
55026;DHT22;40925;45.666;18.994;2023-04-29T15:42:40;691.60;1100.80
55026;DHT22;40925;45.666;18.994;2023-04-29T15:45:07;691.40;1100.80
55026;DHT22;40925;45.666;18.994;2023-04-29T15:47:34;691.40;1126.40
55026;DHT22;40925;45.666;18.994;2023-04-29T15:50:00;691.20;1126.40
55026;DHT22;40925;45.666;18.994;2023-04-29T15:52:26;666.20;1152.00
55026;DHT22;40925;45.666;18.994;2023-04-29T15:54:51;666.10;1177.60
55026;DHT22;40925;45.666;18.994;2023-04-29T15:57:17;666.10;1152.00
55026;DHT22;40925;45.666;18.994;2023-04-29T15:59:43;666.10;1126.40
55026;DHT22;40925;45.666;18.994;2023-04-29T16:02:08;665.80;1177.60
55026;DHT22;40925;45.666;18.994;2023-04-29T16:04:35;665.70;1177.60
55026;DHT22;40925;45.666;18.994;2023-04-29T16:07:02;665.80;1177.60
55026;DHT22;40925;45.666;18.994;2023-04-29T16:09:33;640.90;1152.00
55026;DHT22;40925;45.666;18.994;2023-04-29T16:11:59;640.80;1203.20
55026;DHT22;40925;45.666;18.994;2023-04-29T16:14:26;640.10;1228.80
55026;DHT22;40925;45.666;18.994;2023-04-29T16:16:52;640.10;1254.40
55026;DHT22;40925;45.666;18.994;2023-04-29T16:19:18;640.30;1228.80
55026;DHT22;40925;45.666;18.994;2023-04-29T16:21:44;615.30;1254.40
55026;DHT22;40925;45.666;18.994;2023-04-29T16:24:13;615.20;1280.00
55026;DHT22;40925;45.666;18.994;2023-04-29T16:26:40;615.00;1331.20
55026;DHT22;40925;45.666;18.994;2023-04-29T16:29:06;614.80;1305.60
55026;DHT22;40925;45.666;18.994;2023-04-29T16:31:32;614.90;1305.60
55026;DHT22;40925;45.666;18.994;2023-04-29T16:33:58;614.80;1280.00
55026;DHT22;40925;45.666;18.994;2023-04-29T16:36:24;614.80;1612.80
55026;DHT22;40925;45.666;18.994;2023-04-29T16:38:51;614.70;1331.20
55026;DHT22;40925;45.666;18.994;2023-04-29T16:41:20;614.60;1331.20
55026;DHT22;40925;45.666;18.994;2023-04-29T16:43:48;614.60;1356.80
55026;DHT22;40925;45.666;18.994;2023-04-29T16:46:14;614.60;1331.20
55026;DHT22;40925;45.666;18.994;2023-04-29T16:48:40;614.50;1331.20
55026;DHT22;40925;45.666;18.994;2023-04-29T16:53:32;614.40;1587.20
55026;DHT22;40925;45.666;18.994;2023-04-29T16:55:57;589.70;1356.80
55026;DHT22;40925;45.666;18.994;2023-04-29T16:58:23;589.60;1331.20
55026;DHT22;40925;45.666;18.994;2023-04-29T17:00:49;589.60;1356.80
55026;DHT22;40925;45.666;18.994;2023-04-29T17:03:14;589.60;1356.80
55026;DHT22;40925;45.666;18.994;2023-04-29T17:05:40;589.50;1356.80
55026;DHT22;40925;45.666;18.994;2023-04-29T17:08:06;589.30;1382.40
55026;DHT22;40925;45.666;18.994;2023-04-29T17:10:32;589.40;1408.00
55026;DHT22;40925;45.666;18.994;2023-04-29T17:12:57;589.30;1408.00
55026;DHT22;40925;45.666;18.994;2023-04-29T17:15:23;589.20;1408.00
55026;DHT22;40925;45.666;18.994;2023-04-29T17:17:49;589.30;1408.00
55026;DHT22;40925;45.666;18.994;2023-04-29T17:20:16;589.40;1408.00
55026;DHT22;40925;45.666;18.994;2023-04-29T17:22:42;589.20;1408.00
55026;DHT22;40925;45.666;18.994;2023-04-29T17:25:08;589.10;1408.00
55026;DHT22;40925;45.666;18.994;2023-04-29T17:27:35;589.00;1408.00
55026;DHT22;40925;45.666;18.994;2023-04-29T17:30:01;588.90;1433.60
55026;DHT22;40925;45.666;18.994;2023-04-29T17:32:27;588.90;1433.60
55026;DHT22;40925;45.666;18.994;2023-04-29T17:34:58;588.80;1433.60
55026;DHT22;40925;45.666;18.994;2023-04-29T17:37:23;564.10;1459.20
55026;DHT22;40925;45.666;18.994;2023-04-29T17:39:53;564.10;1433.60
55026;DHT22;40925;45.666;18.994;2023-04-29T17:42:19;564.00;1433.60
55026;DHT22;40925;45.666;18.994;2023-04-29T17:44:48;563.90;1484.80
55026;DHT22;40925;45.666;18.994;2023-04-29T17:47:14;563.70;1484.80
55026;DHT22;40925;45.666;18.994;2023-04-29T17:49:42;563.50;1536.00
55026;DHT22;40925;45.666;18.994;2023-04-29T17:52:08;563.50;1536.00
55026;DHT22;40925;45.666;18.994;2023-04-29T17:54:33;563.40;1536.00
55026;DHT22;40925;45.666;18.994;2023-04-29T17:56:59;538.50;1561.60
55026;DHT22;40925;45.666;18.994;2023-04-29T17:59:27;538.50;1536.00
55026;DHT22;40925;45.666;18.994;2023-04-29T18:01:53;538.50;1561.60
55026;DHT22;40925;45.666;18.994;2023-04-29T18:04:19;538.50;1561.60
55026;DHT22;40925;45.666;18.994;2023-04-29T18:06:45;538.40;1561.60
55026;DHT22;40925;45.666;18.994;2023-04-29T18:09:11;538.40;1561.60
55026;DHT22;40925;45.666;18.994;2023-04-29T18:11:36;538.30;1536.00
55026;DHT22;40925;45.666;18.994;2023-04-29T18:14:02;538.10;1561.60
55026;DHT22;40925;45.666;18.994;2023-04-29T18:16:29;538.10;1587.20
55026;DHT22;40925;45.666;18.994;2023-04-29T18:18:55;538.20;1587.20
55026;DHT22;40925;45.666;18.994;2023-04-29T18:21:22;537.80;1638.40
55026;DHT22;40925;45.666;18.994;2023-04-29T18:23:48;537.60;1638.40
55026;DHT22;40925;45.666;18.994;2023-04-29T18:26:16;537.60;1638.40
55026;DHT22;40925;45.666;18.994;2023-04-29T18:28:44;512.80;1612.80
55026;DHT22;40925;45.666;18.994;2023-04-29T18:31:10;512.70;1638.40
55026;DHT22;40925;45.666;18.994;2023-04-29T18:33:36;512.20;1664.00
55026;DHT22;40925;45.666;18.994;2023-04-29T18:36:02;512.00;1689.60
55026;DHT22;40925;45.666;18.994;2023-04-29T18:38:28;487.30;1689.60
55026;DHT22;40925;45.666;18.994;2023-04-29T18:40:54;487.20;1715.20
55026;DHT22;40925;45.666;18.994;2023-04-29T18:43:20;487.20;1715.20
55026;DHT22;40925;45.666;18.994;2023-04-29T18:45:49;487.10;1740.80
55026;DHT22;40925;45.666;18.994;2023-04-29T18:48:15;487.00;1740.80
55026;DHT22;40925;45.666;18.994;2023-04-29T18:50:41;487.00;1766.40
55026;DHT22;40925;45.666;18.994;2023-04-29T18:53:08;486.90;1766.40
55026;DHT22;40925;45.666;18.994;2023-04-29T18:55:33;487.00;1766.40
55026;DHT22;40925;45.666;18.994;2023-04-29T18:58:00;486.90;1766.40
55026;DHT22;40925;45.666;18.994;2023-04-29T19:00:26;486.90;1766.40
55026;DHT22;40925;45.666;18.994;2023-04-29T19:02:52;486.90;1766.40
55026;DHT22;40925;45.666;18.994;2023-04-29T19:05:17;486.80;1792.00
55026;DHT22;40925;45.666;18.994;2023-04-29T19:07:44;486.70;1792.00
55026;DHT22;40925;45.666;18.994;2023-04-29T19:10:10;486.70;1792.00
55026;DHT22;40925;45.666;18.994;2023-04-29T19:12:36;486.70;1792.00
55026;DHT22;40925;45.666;18.994;2023-04-29T19:15:02;486.60;1817.60
55026;DHT22;40925;45.666;18.994;2023-04-29T19:17:28;486.60;1817.60
55026;DHT22;40925;45.666;18.994;2023-04-29T19:19:54;486.50;1817.60
55026;DHT22;40925;45.666;18.994;2023-04-29T19:22:19;486.50;1843.20
55026;DHT22;40925;45.666;18.994;2023-04-29T19:24:46;486.40;1843.20
55026;DHT22;40925;45.666;18.994;2023-04-29T19:27:12;486.40;1843.20
55026;DHT22;40925;45.666;18.994;2023-04-29T19:51:56;461.70;1945.60
55026;DHT22;40925;45.666;18.994;2023-04-29T19:54:22;461.40;2048.00
55026;DHT22;40925;45.666;18.994;2023-04-29T19:56:48;461.20;2099.20
55026;DHT22;40925;45.666;18.994;2023-04-29T19:59:13;461.10;2380.80
55026;DHT22;40925;45.666;18.994;2023-04-29T20:01:39;460.80;2227.20
55026;DHT22;40925;45.666;18.994;2023-04-29T20:04:05;460.80;2252.80
55026;DHT22;40925;45.666;18.994;2023-04-29T20:06:34;436.10;2278.40
55026;DHT22;40925;45.666;18.994;2023-04-29T20:09:02;436.10;2304.00
55026;DHT22;40925;45.666;18.994;2023-04-29T20:11:28;436.10;2304.00
55026;DHT22;40925;45.666;18.994;2023-04-29T20:16:20;460.80;2380.80
55026;DHT22;40925;45.666;18.994;2023-04-29T20:18:47;435.90;2355.20
55026;DHT22;40925;45.666;18.994;2023-04-29T20:21:13;436.00;2355.20
55026;DHT22;40925;45.666;18.994;2023-04-29T20:24:13;435.80;2355.20
55026;DHT22;40925;45.666;18.994;2023-04-29T20:26:39;435.70;2355.20
55026;DHT22;40925;45.666;18.994;2023-04-29T20:29:05;435.70;2355.20
55026;DHT22;40925;45.666;18.994;2023-04-29T20:31:30;435.60;2355.20
55026;DHT22;40925;45.666;18.994;2023-04-29T20:33:56;435.60;2355.20
55026;DHT22;40925;45.666;18.994;2023-04-29T20:39:16;435.80;2355.20
55026;DHT22;40925;45.666;18.994;2023-04-29T20:41:42;435.60;2355.20
55026;DHT22;40925;45.666;18.994;2023-04-29T20:44:08;435.60;2355.20
55026;DHT22;40925;45.666;18.994;2023-04-29T20:46:34;435.60;2355.20
55026;DHT22;40925;45.666;18.994;2023-04-29T20:49:01;435.40;2355.20
55026;DHT22;40925;45.666;18.994;2023-04-29T20:51:27;435.40;2355.20
55026;DHT22;40925;45.666;18.994;2023-04-29T20:53:53;435.40;2355.20
55026;DHT22;40925;45.666;18.994;2023-04-29T20:56:19;435.30;2355.20
55026;DHT22;40925;45.666;18.994;2023-04-29T20:58:45;435.30;2355.20
55026;DHT22;40925;45.666;18.994;2023-04-29T21:01:11;435.20;2355.20
55026;DHT22;40925;45.666;18.994;2023-04-29T21:03:37;435.20;2355.20
55026;DHT22;40925;45.666;18.994;2023-04-29T21:06:03;410.50;2355.20
55026;DHT22;40925;45.666;18.994;2023-04-29T21:08:29;410.50;2355.20
55026;DHT22;40925;45.666;18.994;2023-04-29T21:10:55;410.50;2355.20
55026;DHT22;40925;45.666;18.994;2023-04-29T21:13:21;410.40;2355.20
55026;DHT22;40925;45.666;18.994;2023-04-29T21:15:47;410.50;2355.20
55026;DHT22;40925;45.666;18.994;2023-04-29T21:18:13;410.30;2355.20
55026;DHT22;40925;45.666;18.994;2023-04-29T21:20:39;410.10;2355.20
55026;DHT22;40925;45.666;18.994;2023-04-29T21:23:04;410.10;2355.20
55026;DHT22;40925;45.666;18.994;2023-04-29T21:25:30;410.10;2355.20
55026;DHT22;40925;45.666;18.994;2023-04-29T21:27:56;410.10;2355.20
55026;DHT22;40925;45.666;18.994;2023-04-29T21:30:22;410.10;2355.20
55026;DHT22;40925;45.666;18.994;2023-04-29T21:32:47;409.90;2355.20
55026;DHT22;40925;45.666;18.994;2023-04-29T21:35:13;409.80;2355.20
55026;DHT22;40925;45.666;18.994;2023-04-29T21:37:39;409.80;2355.20
55026;DHT22;40925;45.666;18.994;2023-04-29T21:40:06;409.80;2355.20
55026;DHT22;40925;45.666;18.994;2023-04-29T21:42:32;409.80;2355.20
55026;DHT22;40925;45.666;18.994;2023-04-29T21:44:59;409.60;2355.20
55026;DHT22;40925;45.666;18.994;2023-04-29T21:47:26;384.90;2329.60
55026;DHT22;40925;45.666;18.994;2023-04-29T21:49:54;384.80;2329.60
55026;DHT22;40925;45.666;18.994;2023-04-29T21:52:20;384.70;2329.60
55026;DHT22;40925;45.666;18.994;2023-04-29T21:54:46;384.80;2329.60
55026;DHT22;40925;45.666;18.994;2023-04-29T21:57:11;384.70;2329.60
55026;DHT22;40925;45.666;18.994;2023-04-29T21:59:37;384.70;2329.60
55026;DHT22;40925;45.666;18.994;2023-04-29T22:02:03;384.60;2329.60
55026;DHT22;40925;45.666;18.994;2023-04-29T22:04:39;384.30;2329.60
55026;DHT22;40925;45.666;18.994;2023-04-29T22:07:06;384.00;2329.60
55026;DHT22;40925;45.666;18.994;2023-04-29T22:09:51;384.10;2329.60
55026;DHT22;40925;45.666;18.994;2023-04-29T22:12:17;384.00;2329.60
55026;DHT22;40925;45.666;18.994;2023-04-29T22:14:43;384.00;2329.60
55026;DHT22;40925;45.666;18.994;2023-04-29T22:17:10;384.10;2329.60
55026;DHT22;40925;45.666;18.994;2023-04-29T22:19:36;384.10;2329.60
55026;DHT22;40925;45.666;18.994;2023-04-29T22:22:02;384.10;2329.60
55026;DHT22;40925;45.666;18.994;2023-04-29T22:24:46;384.10;2329.60